sensor_id;sensor_type;location;lat;lon;timestamp;temperature;humidity
70079;DHT22;57451;52.496;13.456;2022-09-11T00:02:01;17.00;68.90
70079;DHT22;57451;52.496;13.456;2022-09-11T00:04:28;17.00;68.40
70079;DHT22;57451;52.496;13.456;2022-09-11T00:06:55;17.00;68.90
70079;DHT22;57451;52.496;13.456;2022-09-11T00:09:21;17.00;68.50
70079;DHT22;57451;52.496;13.456;2022-09-11T00:11:47;17.00;69.00
70079;DHT22;57451;52.496;13.456;2022-09-11T00:14:14;17.00;67.80
70079;DHT22;57451;52.496;13.456;2022-09-11T00:16:42;17.00;69.10
70079;DHT22;57451;52.496;13.456;2022-09-11T00:19:11;17.00;69.00
70079;DHT22;57451;52.496;13.456;2022-09-11T00:21:38;16.90;69.40
70079;DHT22;57451;52.496;13.456;2022-09-11T00:24:06;16.90;70.10
70079;DHT22;57451;52.496;13.456;2022-09-11T00:26:36;16.90;69.60
70079;DHT22;57451;52.496;13.456;2022-09-11T00:29:02;16.90;70.10
70079;DHT22;57451;52.496;13.456;2022-09-11T00:31:29;16.90;70.00
70079;DHT22;57451;52.496;13.456;2022-09-11T00:33:57;16.90;69.10
70079;DHT22;57451;52.496;13.456;2022-09-11T00:36:25;16.90;69.50
70079;DHT22;57451;52.496;13.456;2022-09-11T00:38:52;16.90;70.10
70079;DHT22;57451;52.496;13.456;2022-09-11T00:41:21;16.90;69.10
70079;DHT22;57451;52.496;13.456;2022-09-11T00:43:56;16.80;71.60
70079;DHT22;57451;52.496;13.456;2022-09-11T00:46:24;16.80;70.90
70079;DHT22;57451;52.496;13.456;2022-09-11T00:48:54;16.80;71.50
70079;DHT22;57451;52.496;13.456;2022-09-11T00:51:25;16.80;72.10
70079;DHT22;57451;52.496;13.456;2022-09-11T00:53:55;16.80;71.10
70079;DHT22;57451;52.496;13.456;2022-09-11T00:56:26;16.80;70.00
70079;DHT22;57451;52.496;13.456;2022-09-11T00:58:55;16.70;71.00
70079;DHT22;57451;52.496;13.456;2022-09-11T01:01:21;16.80;70.40
70079;DHT22;57451;52.496;13.456;2022-09-11T01:03:48;16.70;70.90
70079;DHT22;57451;52.496;13.456;2022-09-11T01:06:15;16.70;71.50
70079;DHT22;57451;52.496;13.456;2022-09-11T01:08:41;16.70;70.90
70079;DHT22;57451;52.496;13.456;2022-09-11T01:11:24;16.70;70.00
70079;DHT22;57451;52.496;13.456;2022-09-11T01:13:58;16.70;71.70
70079;DHT22;57451;52.496;13.456;2022-09-11T01:16:32;16.70;70.40
70079;DHT22;57451;52.496;13.456;2022-09-11T01:19:12;16.70;72.00
70079;DHT22;57451;52.496;13.456;2022-09-11T01:22:00;16.70;72.50
70079;DHT22;57451;52.496;13.456;2022-09-11T01:24:48;16.70;71.40
70079;DHT22;57451;52.496;13.456;2022-09-11T01:30:12;16.70;72.00
70079;DHT22;57451;52.496;13.456;2022-09-11T01:35:36;16.70;71.10
70079;DHT22;57451;52.496;13.456;2022-09-11T01:38:10;16.70;71.60
70079;DHT22;57451;52.496;13.456;2022-09-11T01:40:43;16.70;71.80
70079;DHT22;57451;52.496;13.456;2022-09-11T01:43:15;16.70;72.50
70079;DHT22;57451;52.496;13.456;2022-09-11T01:45:45;16.60;71.40
70079;DHT22;57451;52.496;13.456;2022-09-11T01:48:16;16.60;71.60
70079;DHT22;57451;52.496;13.456;2022-09-11T01:50:45;16.60;71.60
70079;DHT22;57451;52.496;13.456;2022-09-11T01:53:14;16.60;71.70
70079;DHT22;57451;52.496;13.456;2022-09-11T01:55:44;16.60;71.30
70079;DHT22;57451;52.496;13.456;2022-09-11T01:58:21;16.60;71.90
70079;DHT22;57451;52.496;13.456;2022-09-11T02:00:52;16.60;71.90
70079;DHT22;57451;52.496;13.456;2022-09-11T02:03:23;16.60;71.50
70079;DHT22;57451;52.496;13.456;2022-09-11T02:05:56;16.60;72.30
70079;DHT22;57451;52.496;13.456;2022-09-11T02:08:27;16.50;71.10
70079;DHT22;57451;52.496;13.456;2022-09-11T02:10:58;16.60;70.40
70079;DHT22;57451;52.496;13.456;2022-09-11T02:13:31;16.50;71.00
70079;DHT22;57451;52.496;13.456;2022-09-11T02:16:06;16.50;71.90
70079;DHT22;57451;52.496;13.456;2022-09-11T02:18:40;16.50;72.10
70079;DHT22;57451;52.496;13.456;2022-09-11T02:21:08;16.40;72.90
70079;DHT22;57451;52.496;13.456;2022-09-11T02:23:37;16.40;72.80
70079;DHT22;57451;52.496;13.456;2022-09-11T02:26:05;16.40;71.80
70079;DHT22;57451;52.496;13.456;2022-09-11T02:28:34;16.30;72.60
70079;DHT22;57451;52.496;13.456;2022-09-11T02:31:00;16.30;72.20
70079;DHT22;57451;52.496;13.456;2022-09-11T02:33:30;16.30;72.30
70079;DHT22;57451;52.496;13.456;2022-09-11T02:36:14;16.30;71.50
70079;DHT22;57451;52.496;13.456;2022-09-11T02:38:56;16.30;72.40
70079;DHT22;57451;52.496;13.456;2022-09-11T02:41:29;16.30;72.30
70079;DHT22;57451;52.496;13.456;2022-09-11T02:44:08;16.20;72.20
70079;DHT22;57451;52.496;13.456;2022-09-11T02:46:58;16.20;72.40
70079;DHT22;57451;52.496;13.456;2022-09-11T02:49:38;16.20;72.50
70079;DHT22;57451;52.496;13.456;2022-09-11T02:52:15;16.20;72.20
70079;DHT22;57451;52.496;13.456;2022-09-11T02:54:51;16.10;72.50
70079;DHT22;57451;52.496;13.456;2022-09-11T02:57:24;16.10;72.60
70079;DHT22;57451;52.496;13.456;2022-09-11T02:59:57;16.10;72.90
70079;DHT22;57451;52.496;13.456;2022-09-11T03:02:27;16.10;73.40
70079;DHT22;57451;52.496;13.456;2022-09-11T03:04:54;16.00;72.70
70079;DHT22;57451;52.496;13.456;2022-09-11T03:07:22;16.00;72.90
70079;DHT22;57451;52.496;13.456;2022-09-11T03:09:50;16.00;73.60
70079;DHT22;57451;52.496;13.456;2022-09-11T03:12:20;15.90;73.80
70079;DHT22;57451;52.496;13.456;2022-09-11T03:14:48;15.80;74.50
70079;DHT22;57451;52.496;13.456;2022-09-11T03:17:16;15.80;74.40
70079;DHT22;57451;52.496;13.456;2022-09-11T03:19:42;15.80;72.60
70079;DHT22;57451;52.496;13.456;2022-09-11T03:22:09;15.80;73.70
70079;DHT22;57451;52.496;13.456;2022-09-11T03:24:36;15.80;73.90
70079;DHT22;57451;52.496;13.456;2022-09-11T03:27:02;15.80;73.50
70079;DHT22;57451;52.496;13.456;2022-09-11T03:29:29;15.80;73.20
70079;DHT22;57451;52.496;13.456;2022-09-11T03:31:56;15.80;73.90
70079;DHT22;57451;52.496;13.456;2022-09-11T03:34:25;15.80;74.10
70079;DHT22;57451;52.496;13.456;2022-09-11T03:36:51;15.70;74.10
70079;DHT22;57451;52.496;13.456;2022-09-11T03:39:17;15.80;73.30
70079;DHT22;57451;52.496;13.456;2022-09-11T03:41:44;15.80;73.20
70079;DHT22;57451;52.496;13.456;2022-09-11T03:44:10;15.80;73.60
70079;DHT22;57451;52.496;13.456;2022-09-11T03:46:37;15.70;73.60
70079;DHT22;57451;52.496;13.456;2022-09-11T03:49:04;15.70;73.60
70079;DHT22;57451;52.496;13.456;2022-09-11T03:51:32;15.70;74.30
70079;DHT22;57451;52.496;13.456;2022-09-11T03:53:59;15.70;74.10
70079;DHT22;57451;52.496;13.456;2022-09-11T03:56:26;15.60;74.30
70079;DHT22;57451;52.496;13.456;2022-09-11T03:58:54;15.60;74.10
70079;DHT22;57451;52.496;13.456;2022-09-11T04:01:22;15.60;74.50
70079;DHT22;57451;52.496;13.456;2022-09-11T04:03:50;15.50;74.40
70079;DHT22;57451;52.496;13.456;2022-09-11T04:06:23;15.50;75.10
70079;DHT22;57451;52.496;13.456;2022-09-11T04:08:51;15.30;74.80
70079;DHT22;57451;52.496;13.456;2022-09-11T04:11:19;15.40;74.90
70079;DHT22;57451;52.496;13.456;2022-09-11T04:13:45;15.40;74.80
70079;DHT22;57451;52.496;13.456;2022-09-11T04:16:15;15.30;74.50
70079;DHT22;57451;52.496;13.456;2022-09-11T04:18:45;15.30;74.50
70079;DHT22;57451;52.496;13.456;2022-09-11T04:21:15;15.30;74.70
70079;DHT22;57451;52.496;13.456;2022-09-11T04:23:43;15.30;74.20
70079;DHT22;57451;52.496;13.456;2022-09-11T04:26:16;15.30;74.10
70079;DHT22;57451;52.496;13.456;2022-09-11T04:28:46;15.30;73.60
70079;DHT22;57451;52.496;13.456;2022-09-11T04:31:14;15.40;74.00
70079;DHT22;57451;52.496;13.456;2022-09-11T04:33:41;15.40;73.90
70079;DHT22;57451;52.496;13.456;2022-09-11T04:36:09;15.40;73.80
70079;DHT22;57451;52.496;13.456;2022-09-11T04:38:36;15.30;74.50
70079;DHT22;57451;52.496;13.456;2022-09-11T04:41:04;15.30;74.10
70079;DHT22;57451;52.496;13.456;2022-09-11T04:43:33;15.40;73.80
70079;DHT22;57451;52.496;13.456;2022-09-11T04:46:01;15.40;74.40
70079;DHT22;57451;52.496;13.456;2022-09-11T04:48:28;15.40;74.60
70079;DHT22;57451;52.496;13.456;2022-09-11T04:50:59;15.30;74.90
70079;DHT22;57451;52.496;13.456;2022-09-11T04:53:25;15.30;75.30
70079;DHT22;57451;52.496;13.456;2022-09-11T04:56:03;15.30;74.10
70079;DHT22;57451;52.496;13.456;2022-09-11T04:58:36;15.30;75.10
70079;DHT22;57451;52.496;13.456;2022-09-11T05:01:05;15.30;75.30
70079;DHT22;57451;52.496;13.456;2022-09-11T05:03:31;15.30;75.00
70079;DHT22;57451;52.496;13.456;2022-09-11T05:05:58;15.40;74.50
70079;DHT22;57451;52.496;13.456;2022-09-11T05:08:24;15.40;74.70
70079;DHT22;57451;52.496;13.456;2022-09-11T05:10:52;15.40;74.70
70079;DHT22;57451;52.496;13.456;2022-09-11T05:13:20;15.40;75.30
70079;DHT22;57451;52.496;13.456;2022-09-11T05:15:48;15.40;74.90
70079;DHT22;57451;52.496;13.456;2022-09-11T05:18:15;15.40;75.20
70079;DHT22;57451;52.496;13.456;2022-09-11T05:20:41;15.40;74.10
70079;DHT22;57451;52.496;13.456;2022-09-11T05:23:10;15.40;74.40
70079;DHT22;57451;52.496;13.456;2022-09-11T05:25:36;15.40;74.80
70079;DHT22;57451;52.496;13.456;2022-09-11T05:28:03;15.40;74.80
70079;DHT22;57451;52.496;13.456;2022-09-11T05:30:31;15.50;75.00
70079;DHT22;57451;52.496;13.456;2022-09-11T05:32:58;15.50;74.40
70079;DHT22;57451;52.496;13.456;2022-09-11T05:35:25;15.50;74.50
70079;DHT22;57451;52.496;13.456;2022-09-11T05:37:51;15.50;74.70
70079;DHT22;57451;52.496;13.456;2022-09-11T05:40:18;15.50;74.70
70079;DHT22;57451;52.496;13.456;2022-09-11T05:42:44;15.50;75.00
70079;DHT22;57451;52.496;13.456;2022-09-11T05:45:11;15.60;73.90
70079;DHT22;57451;52.496;13.456;2022-09-11T05:47:37;15.60;74.60
70079;DHT22;57451;52.496;13.456;2022-09-11T05:50:06;15.60;75.10
70079;DHT22;57451;52.496;13.456;2022-09-11T05:52:33;15.60;74.70
70079;DHT22;57451;52.496;13.456;2022-09-11T05:55:00;15.60;74.60
70079;DHT22;57451;52.496;13.456;2022-09-11T05:57:29;15.70;74.80
70079;DHT22;57451;52.496;13.456;2022-09-11T05:59:55;15.70;74.50
70079;DHT22;57451;52.496;13.456;2022-09-11T06:02:21;15.70;74.60
70079;DHT22;57451;52.496;13.456;2022-09-11T06:04:51;15.80;75.30
70079;DHT22;57451;52.496;13.456;2022-09-11T06:07:21;15.70;75.30
70079;DHT22;57451;52.496;13.456;2022-09-11T06:09:49;15.80;75.90
70079;DHT22;57451;52.496;13.456;2022-09-11T06:12:15;15.70;76.00
70079;DHT22;57451;52.496;13.456;2022-09-11T06:14:45;15.70;76.60
70079;DHT22;57451;52.496;13.456;2022-09-11T06:17:13;15.70;75.90
70079;DHT22;57451;52.496;13.456;2022-09-11T06:19:39;15.80;76.30
70079;DHT22;57451;52.496;13.456;2022-09-11T06:22:06;15.80;76.10
70079;DHT22;57451;52.496;13.456;2022-09-11T06:24:38;15.80;75.70
70079;DHT22;57451;52.496;13.456;2022-09-11T06:27:04;15.80;75.10
70079;DHT22;57451;52.496;13.456;2022-09-11T06:29:33;15.90;75.60
70079;DHT22;57451;52.496;13.456;2022-09-11T06:32:00;15.90;75.00
70079;DHT22;57451;52.496;13.456;2022-09-11T06:34:28;16.00;74.80
70079;DHT22;57451;52.496;13.456;2022-09-11T06:36:58;16.00;74.70
70079;DHT22;57451;52.496;13.456;2022-09-11T06:39:25;16.10;74.80
70079;DHT22;57451;52.496;13.456;2022-09-11T06:41:53;16.10;74.80
70079;DHT22;57451;52.496;13.456;2022-09-11T06:44:25;16.10;74.10
70079;DHT22;57451;52.496;13.456;2022-09-11T06:46:53;16.10;74.50
70079;DHT22;57451;52.496;13.456;2022-09-11T06:49:19;16.20;74.80
70079;DHT22;57451;52.496;13.456;2022-09-11T06:52:04;16.20;74.80
70079;DHT22;57451;52.496;13.456;2022-09-11T06:54:31;16.20;74.70
70079;DHT22;57451;52.496;13.456;2022-09-11T06:56:59;16.20;75.10
70079;DHT22;57451;52.496;13.456;2022-09-11T06:59:26;16.20;74.50
70079;DHT22;57451;52.496;13.456;2022-09-11T07:01:55;16.20;74.50
70079;DHT22;57451;52.496;13.456;2022-09-11T07:04:21;16.30;74.20
70079;DHT22;57451;52.496;13.456;2022-09-11T07:06:48;16.30;74.20
70079;DHT22;57451;52.496;13.456;2022-09-11T07:09:15;16.40;74.20
70079;DHT22;57451;52.496;13.456;2022-09-11T07:11:48;16.40;73.80
70079;DHT22;57451;52.496;13.456;2022-09-11T07:14:15;16.40;73.90
70079;DHT22;57451;52.496;13.456;2022-09-11T07:16:48;16.40;73.30
70079;DHT22;57451;52.496;13.456;2022-09-11T07:19:15;16.50;73.70
70079;DHT22;57451;52.496;13.456;2022-09-11T07:21:43;16.50;73.90
70079;DHT22;57451;52.496;13.456;2022-09-11T07:24:10;16.50;74.00
70079;DHT22;57451;52.496;13.456;2022-09-11T07:26:40;16.50;74.00
70079;DHT22;57451;52.496;13.456;2022-09-11T07:29:12;16.50;73.70
70079;DHT22;57451;52.496;13.456;2022-09-11T07:31:40;16.50;73.80
70079;DHT22;57451;52.496;13.456;2022-09-11T07:34:08;16.50;73.50
70079;DHT22;57451;52.496;13.456;2022-09-11T07:36:35;16.50;73.80
70079;DHT22;57451;52.496;13.456;2022-09-11T07:39:06;16.60;73.20
70079;DHT22;57451;52.496;13.456;2022-09-11T07:41:42;16.60;73.50
70079;DHT22;57451;52.496;13.456;2022-09-11T07:44:14;16.70;73.20
70079;DHT22;57451;52.496;13.456;2022-09-11T07:46:42;16.80;73.60
70079;DHT22;57451;52.496;13.456;2022-09-11T07:49:11;16.80;73.60
70079;DHT22;57451;52.496;13.456;2022-09-11T07:51:40;16.90;73.50
70079;DHT22;57451;52.496;13.456;2022-09-11T07:54:08;17.00;73.10
70079;DHT22;57451;52.496;13.456;2022-09-11T07:56:35;17.10;73.30
70079;DHT22;57451;52.496;13.456;2022-09-11T07:59:06;17.20;72.70
70079;DHT22;57451;52.496;13.456;2022-09-11T08:01:33;17.30;72.40
70079;DHT22;57451;52.496;13.456;2022-09-11T08:04:03;17.30;72.20
70079;DHT22;57451;52.496;13.456;2022-09-11T08:06:32;17.40;71.70
70079;DHT22;57451;52.496;13.456;2022-09-11T08:09:02;17.50;71.80
70079;DHT22;57451;52.496;13.456;2022-09-11T08:11:34;17.50;71.40
70079;DHT22;57451;52.496;13.456;2022-09-11T08:14:01;17.60;71.20
70079;DHT22;57451;52.496;13.456;2022-09-11T08:16:28;17.70;71.20
70079;DHT22;57451;52.496;13.456;2022-09-11T08:18:57;17.80;71.20
70079;DHT22;57451;52.496;13.456;2022-09-11T08:21:24;17.80;71.00
70079;DHT22;57451;52.496;13.456;2022-09-11T08:23:51;17.90;70.50
70079;DHT22;57451;52.496;13.456;2022-09-11T08:26:19;18.00;70.50
70079;DHT22;57451;52.496;13.456;2022-09-11T08:28:49;18.00;70.00
70079;DHT22;57451;52.496;13.456;2022-09-11T08:31:19;18.10;70.10
70079;DHT22;57451;52.496;13.456;2022-09-11T08:33:45;18.10;69.70
70079;DHT22;57451;52.496;13.456;2022-09-11T08:36:12;18.10;69.60
70079;DHT22;57451;52.496;13.456;2022-09-11T08:38:41;18.10;69.70
70079;DHT22;57451;52.496;13.456;2022-09-11T08:41:10;18.10;69.60
70079;DHT22;57451;52.496;13.456;2022-09-11T08:43:44;18.10;69.50
70079;DHT22;57451;52.496;13.456;2022-09-11T08:46:12;18.10;69.70
70079;DHT22;57451;52.496;13.456;2022-09-11T08:48:46;18.10;69.40
70079;DHT22;57451;52.496;13.456;2022-09-11T08:51:16;18.20;69.90
70079;DHT22;57451;52.496;13.456;2022-09-11T08:53:44;18.20;69.50
70079;DHT22;57451;52.496;13.456;2022-09-11T08:56:16;18.30;69.40
70079;DHT22;57451;52.496;13.456;2022-09-11T08:58:51;18.40;69.00
70079;DHT22;57451;52.496;13.456;2022-09-11T09:01:31;18.40;69.10
70079;DHT22;57451;52.496;13.456;2022-09-11T09:04:15;18.50;68.80
70079;DHT22;57451;52.496;13.456;2022-09-11T09:06:53;18.50;68.50
70079;DHT22;57451;52.496;13.456;2022-09-11T09:09:31;18.50;68.70
70079;DHT22;57451;52.496;13.456;2022-09-11T09:12:09;18.60;68.20
70079;DHT22;57451;52.496;13.456;2022-09-11T09:14:50;18.60;68.00
70079;DHT22;57451;52.496;13.456;2022-09-11T09:17:21;18.50;68.20
70079;DHT22;57451;52.496;13.456;2022-09-11T09:19:54;18.50;68.00
70079;DHT22;57451;52.496;13.456;2022-09-11T09:22:25;18.50;67.90
70079;DHT22;57451;52.496;13.456;2022-09-11T09:24:57;18.60;67.70
70079;DHT22;57451;52.496;13.456;2022-09-11T09:27:29;18.60;67.70
70079;DHT22;57451;52.496;13.456;2022-09-11T09:30:02;18.60;67.40
70079;DHT22;57451;52.496;13.456;2022-09-11T09:32:33;18.70;67.80
70079;DHT22;57451;52.496;13.456;2022-09-11T09:35:04;18.70;67.90
70079;DHT22;57451;52.496;13.456;2022-09-11T09:37:37;18.70;67.80
70079;DHT22;57451;52.496;13.456;2022-09-11T09:40:08;18.70;68.20
70079;DHT22;57451;52.496;13.456;2022-09-11T09:42:52;18.70;67.80
70079;DHT22;57451;52.496;13.456;2022-09-11T09:45:41;18.70;67.40
70079;DHT22;57451;52.496;13.456;2022-09-11T09:48:13;18.80;67.40
70079;DHT22;57451;52.496;13.456;2022-09-11T09:50:41;18.90;67.10
70079;DHT22;57451;52.496;13.456;2022-09-11T09:53:15;18.90;66.80
70079;DHT22;57451;52.496;13.456;2022-09-11T09:55:44;18.90;66.60
70079;DHT22;57451;52.496;13.456;2022-09-11T09:58:12;18.90;66.60
70079;DHT22;57451;52.496;13.456;2022-09-11T10:00:39;19.00;66.60
70079;DHT22;57451;52.496;13.456;2022-09-11T10:03:19;19.00;66.60
70079;DHT22;57451;52.496;13.456;2022-09-11T10:05:47;19.00;66.50
70079;DHT22;57451;52.496;13.456;2022-09-11T10:08:26;19.00;67.10
70079;DHT22;57451;52.496;13.456;2022-09-11T10:10:58;19.00;67.20
70079;DHT22;57451;52.496;13.456;2022-09-11T10:13:27;19.00;66.90
70079;DHT22;57451;52.496;13.456;2022-09-11T10:15:55;19.00;67.30
70079;DHT22;57451;52.496;13.456;2022-09-11T10:18:36;19.00;66.90
70079;DHT22;57451;52.496;13.456;2022-09-11T10:21:21;19.10;66.70
70079;DHT22;57451;52.496;13.456;2022-09-11T10:23:51;19.10;66.80
70079;DHT22;57451;52.496;13.456;2022-09-11T10:26:23;19.10;66.60
70079;DHT22;57451;52.496;13.456;2022-09-11T10:28:52;19.10;66.50
70079;DHT22;57451;52.496;13.456;2022-09-11T10:31:19;19.20;66.50
70079;DHT22;57451;52.496;13.456;2022-09-11T10:33:52;19.20;66.50
70079;DHT22;57451;52.496;13.456;2022-09-11T10:36:22;19.20;66.80
70079;DHT22;57451;52.496;13.456;2022-09-11T10:38:50;19.30;66.70
70079;DHT22;57451;52.496;13.456;2022-09-11T10:41:20;19.30;66.20
70079;DHT22;57451;52.496;13.456;2022-09-11T10:43:49;19.40;66.30
70079;DHT22;57451;52.496;13.456;2022-09-11T10:46:27;19.50;66.00
70079;DHT22;57451;52.496;13.456;2022-09-11T10:48:55;19.60;64.80
70079;DHT22;57451;52.496;13.456;2022-09-11T10:51:24;19.70;64.30
70079;DHT22;57451;52.496;13.456;2022-09-11T10:54:05;19.80;64.40
70079;DHT22;57451;52.496;13.456;2022-09-11T10:56:38;19.90;64.40
70079;DHT22;57451;52.496;13.456;2022-09-11T10:59:12;20.10;64.10
70079;DHT22;57451;52.496;13.456;2022-09-11T11:01:42;20.20;64.00
70079;DHT22;57451;52.496;13.456;2022-09-11T11:04:09;20.30;63.60
70079;DHT22;57451;52.496;13.456;2022-09-11T11:06:48;20.30;63.20
70079;DHT22;57451;52.496;13.456;2022-09-11T11:09:23;20.30;62.80
70079;DHT22;57451;52.496;13.456;2022-09-11T11:12:07;20.30;62.60
70079;DHT22;57451;52.496;13.456;2022-09-11T11:14:54;20.30;62.30
70079;DHT22;57451;52.496;13.456;2022-09-11T11:17:27;20.20;62.10
70079;DHT22;57451;52.496;13.456;2022-09-11T11:20:08;20.20;62.20
70079;DHT22;57451;52.496;13.456;2022-09-11T11:22:58;20.20;62.20
70079;DHT22;57451;52.496;13.456;2022-09-11T11:25:34;20.10;63.00
70079;DHT22;57451;52.496;13.456;2022-09-11T11:28:26;20.00;63.60
70079;DHT22;57451;52.496;13.456;2022-09-11T11:31:05;20.00;63.40
70079;DHT22;57451;52.496;13.456;2022-09-11T11:33:45;19.90;63.60
70079;DHT22;57451;52.496;13.456;2022-09-11T11:36:24;20.00;64.70
70079;DHT22;57451;52.496;13.456;2022-09-11T11:38:54;20.20;64.10
70079;DHT22;57451;52.496;13.456;2022-09-11T11:41:28;20.50;64.30
70079;DHT22;57451;52.496;13.456;2022-09-11T11:43:58;20.90;63.60
70079;DHT22;57451;52.496;13.456;2022-09-11T11:46:29;21.40;62.50
70079;DHT22;57451;52.496;13.456;2022-09-11T11:48:58;21.80;60.90
70079;DHT22;57451;52.496;13.456;2022-09-11T11:51:26;22.40;59.60
70079;DHT22;57451;52.496;13.456;2022-09-11T11:53:58;22.90;58.80
70079;DHT22;57451;52.496;13.456;2022-09-11T11:56:30;23.30;55.00
70079;DHT22;57451;52.496;13.456;2022-09-11T11:59:08;23.70;55.90
70079;DHT22;57451;52.496;13.456;2022-09-11T12:01:40;24.00;54.70
70079;DHT22;57451;52.496;13.456;2022-09-11T12:04:14;24.20;54.10
70079;DHT22;57451;52.496;13.456;2022-09-11T12:06:42;24.40;52.50
70079;DHT22;57451;52.496;13.456;2022-09-11T12:09:08;24.50;53.90
70079;DHT22;57451;52.496;13.456;2022-09-11T12:11:37;24.60;53.00
70079;DHT22;57451;52.496;13.456;2022-09-11T12:14:05;24.70;53.50
70079;DHT22;57451;52.496;13.456;2022-09-11T12:16:33;24.80;52.00
70079;DHT22;57451;52.496;13.456;2022-09-11T12:19:13;25.00;52.50
70079;DHT22;57451;52.496;13.456;2022-09-11T12:21:42;25.10;51.40
70079;DHT22;57451;52.496;13.456;2022-09-11T12:24:50;25.30;49.80
70079;DHT22;57451;52.496;13.456;2022-09-11T12:30:25;25.40;50.50
70079;DHT22;57451;52.496;13.456;2022-09-11T12:32:53;25.40;50.40
70079;DHT22;57451;52.496;13.456;2022-09-11T12:35:24;25.40;50.50
70079;DHT22;57451;52.496;13.456;2022-09-11T12:37:57;25.20;49.90
70079;DHT22;57451;52.496;13.456;2022-09-11T12:40:31;25.00;50.20
70079;DHT22;57451;52.496;13.456;2022-09-11T12:43:14;24.70;50.30
70079;DHT22;57451;52.496;13.456;2022-09-11T12:45:46;24.50;50.80
70079;DHT22;57451;52.496;13.456;2022-09-11T12:48:14;24.30;51.40
70079;DHT22;57451;52.496;13.456;2022-09-11T12:50:48;24.10;52.10
70079;DHT22;57451;52.496;13.456;2022-09-11T12:53:17;23.80;52.60
70079;DHT22;57451;52.496;13.456;2022-09-11T12:55:54;23.60;53.30
70079;DHT22;57451;52.496;13.456;2022-09-11T12:58:26;23.50;53.50
70079;DHT22;57451;52.496;13.456;2022-09-11T13:01:03;23.40;53.30
70079;DHT22;57451;52.496;13.456;2022-09-11T13:03:31;23.10;53.60
70079;DHT22;57451;52.496;13.456;2022-09-11T13:06:01;23.00;53.60
70079;DHT22;57451;52.496;13.456;2022-09-11T13:08:30;22.80;53.80
70079;DHT22;57451;52.496;13.456;2022-09-11T13:11:36;22.60;54.20
70079;DHT22;57451;52.496;13.456;2022-09-11T13:14:45;22.50;54.00
70079;DHT22;57451;52.496;13.456;2022-09-11T13:17:15;22.30;54.60
70079;DHT22;57451;52.496;13.456;2022-09-11T13:19:43;22.20;54.30
70079;DHT22;57451;52.496;13.456;2022-09-11T13:22:23;22.20;54.70
70079;DHT22;57451;52.496;13.456;2022-09-11T13:24:56;22.10;54.10
70079;DHT22;57451;52.496;13.456;2022-09-11T13:27:28;22.00;54.80
70079;DHT22;57451;52.496;13.456;2022-09-11T13:29:57;21.80;53.90
70079;DHT22;57451;52.496;13.456;2022-09-11T13:32:25;21.70;55.30
70079;DHT22;57451;52.496;13.456;2022-09-11T13:34:53;21.70;55.50
70079;DHT22;57451;52.496;13.456;2022-09-11T13:37:34;21.80;55.40
70079;DHT22;57451;52.496;13.456;2022-09-11T13:40:02;21.80;55.60
70079;DHT22;57451;52.496;13.456;2022-09-11T13:42:29;21.70;55.30
70079;DHT22;57451;52.496;13.456;2022-09-11T13:44:58;21.60;55.40
70079;DHT22;57451;52.496;13.456;2022-09-11T13:47:26;21.50;55.80
70079;DHT22;57451;52.496;13.456;2022-09-11T13:49:55;21.50;56.20
70079;DHT22;57451;52.496;13.456;2022-09-11T13:52:25;21.50;56.40
70079;DHT22;57451;52.496;13.456;2022-09-11T13:54:55;21.40;56.30
70079;DHT22;57451;52.496;13.456;2022-09-11T13:57:23;21.40;56.70
70079;DHT22;57451;52.496;13.456;2022-09-11T13:59:51;21.40;56.90
70079;DHT22;57451;52.496;13.456;2022-09-11T14:02:47;21.30;56.20
70079;DHT22;57451;52.496;13.456;2022-09-11T14:05:18;21.40;57.30
70079;DHT22;57451;52.496;13.456;2022-09-11T14:07:56;21.70;57.70
70079;DHT22;57451;52.496;13.456;2022-09-11T14:10:27;22.00;56.80
70079;DHT22;57451;52.496;13.456;2022-09-11T14:13:02;22.40;55.20
70079;DHT22;57451;52.496;13.456;2022-09-11T14:15:36;22.70;54.40
70079;DHT22;57451;52.496;13.456;2022-09-11T14:18:11;23.20;54.10
70079;DHT22;57451;52.496;13.456;2022-09-11T14:20:44;23.80;52.70
70079;DHT22;57451;52.496;13.456;2022-09-11T14:23:16;24.30;50.10
70079;DHT22;57451;52.496;13.456;2022-09-11T14:26:02;24.80;50.20
70079;DHT22;57451;52.496;13.456;2022-09-11T14:28:40;25.30;48.80
70079;DHT22;57451;52.496;13.456;2022-09-11T14:31:07;25.80;48.90
70079;DHT22;57451;52.496;13.456;2022-09-11T14:33:35;26.20;48.10
70079;DHT22;57451;52.496;13.456;2022-09-11T14:36:03;26.60;47.00
70079;DHT22;57451;52.496;13.456;2022-09-11T14:38:30;27.00;45.40
70079;DHT22;57451;52.496;13.456;2022-09-11T14:40:58;27.30;45.50
70079;DHT22;57451;52.496;13.456;2022-09-11T14:43:28;27.40;45.00
70079;DHT22;57451;52.496;13.456;2022-09-11T14:45:59;27.60;45.30
70079;DHT22;57451;52.496;13.456;2022-09-11T14:48:26;27.70;43.50
70079;DHT22;57451;52.496;13.456;2022-09-11T14:50:54;27.70;43.60
70079;DHT22;57451;52.496;13.456;2022-09-11T14:53:28;27.60;44.70
70079;DHT22;57451;52.496;13.456;2022-09-11T14:55:56;27.40;43.40
70079;DHT22;57451;52.496;13.456;2022-09-11T14:58:23;27.00;44.30
70079;DHT22;57451;52.496;13.456;2022-09-11T15:00:49;26.80;44.80
70079;DHT22;57451;52.496;13.456;2022-09-11T15:03:16;26.60;44.90
70079;DHT22;57451;52.496;13.456;2022-09-11T15:05:43;26.20;44.50
70079;DHT22;57451;52.496;13.456;2022-09-11T15:08:13;25.90;45.10
70079;DHT22;57451;52.496;13.456;2022-09-11T15:10:39;25.70;46.30
70079;DHT22;57451;52.496;13.456;2022-09-11T15:13:06;25.40;46.90
70079;DHT22;57451;52.496;13.456;2022-09-11T15:15:32;25.00;47.50
70079;DHT22;57451;52.496;13.456;2022-09-11T15:17:59;24.80;48.10
70079;DHT22;57451;52.496;13.456;2022-09-11T15:20:25;24.60;49.00
70079;DHT22;57451;52.496;13.456;2022-09-11T15:22:52;24.40;49.00
70079;DHT22;57451;52.496;13.456;2022-09-11T15:25:20;24.20;49.60
70079;DHT22;57451;52.496;13.456;2022-09-11T15:27:49;24.10;50.10
70079;DHT22;57451;52.496;13.456;2022-09-11T15:30:15;23.90;50.70
70079;DHT22;57451;52.496;13.456;2022-09-11T15:32:43;23.80;51.30
70079;DHT22;57451;52.496;13.456;2022-09-11T15:35:10;23.50;53.30
70079;DHT22;57451;52.496;13.456;2022-09-11T15:37:37;23.40;53.80
70079;DHT22;57451;52.496;13.456;2022-09-11T15:40:05;23.30;54.30
70079;DHT22;57451;52.496;13.456;2022-09-11T15:42:33;23.20;54.70
70079;DHT22;57451;52.496;13.456;2022-09-11T15:44:59;23.00;55.70
70079;DHT22;57451;52.496;13.456;2022-09-11T15:47:26;22.90;56.00